Huvudsida
METAR-TAF:

METAR-TAF

Flygplatser :

Omsk, Ryssland

latitud: 54-58N, longitud: 073-18E, höjd: 122 m

Aktuellt väderrapport

Denna rapport gjordes för 16 minuter sedan, klockan 08:30 UTC
Vind 16 kt från väst
Temperatur 7°C
Fuktighet 66%
Tryck 1005 hPa
Sikt 10 km eller mer
Spridda moln på en höjd av 2300 ft, Cumulonimbus.
Brutna moln på en höjd av 3000 ft

METAR: UNOO 210830Z 28008MPS 9999 SCT023CB BKN030 07/01 Q1005 R25/220060 NOSIG RMK QFE746

Tid: 14:46 (08:46 UTC)

Väderprognos

Denna rapport gjordes för 1 timme och 0 minuter sedan, klockan 07:46 UTC
Prognos gäller från 21 kl. 09 UTC till 22 kl. 09 UTC
Vind 14 kt från väst
Sikt 10 km eller mer
Brutna moln på en höjd av 1100 ft
Brutna moln på en höjd av 3000 ft, Cumulonimbus.
Temporärt
från 21 kl. 09 UTC till 21 kl. 14 UTC
Vind 25 kt från väst/nordväst

TAF: UNOO 210746Z 2109/2209 28007MPS 9999 BKN011 BKN030CB TEMPO 2109/2114 29013MPS

Aktuella väderrapporter och prognoser från 4000 flygplatser (METAR- och TAF-rapporter).

De tillgängliga stationerna syns som gula och röda prickar på kartan.

För musen över prickarna för att se namnen på stationerna.

Klicka sedan för att få väderrapporter och prognoser.

För att ändra kartan: Klicka på de gröna knapparna med ett svart kors på för att zooma in; den gröna knappen med ett streck på för att zooma ut; eller på de gröna pilarna för angränsande kartor.


METAR-TAF: